Time;durP1;ratioP1;P1;durP2;ratioP2;P2;SDS_P1;SDS_P2;PMS_P1;PMS_P2;Temp;Humidity;BMP_temperature;BMP_pressure;BME280_temperature;BME280_humidity;BME280_pressure;Samples;Min_cycle;Max_cycle;Signal;HPM_P1;HPM_P2
2022/04/24 00:01:12;;;;;;;7.25;4.30;;;;;;;12.06;35.78;100078.16;5012137;28;20129;-67
2022/04/24 00:03:38;;;;;;;12.05;4.43;;;;;;;12.34;35.45;100078.34;5010772;28;20057;-68
2022/04/24 00:06:05;;;;;;;9.05;4.50;;;;;;;12.30;35.55;100070.84;5014000;28;20050;-67
2022/04/24 00:08:31;;;;;;;12.82;4.40;;;;;;;12.29;35.44;100074.56;5012661;28;20046;-68
2022/04/24 00:10:58;;;;;;;9.50;4.47;;;;;;;12.23;35.59;100072.59;5012059;28;20077;-67
2022/04/24 00:13:24;;;;;;;7.72;4.40;;;;;;;12.40;35.53;100058.75;5011227;28;20094;-67
2022/04/24 00:15:51;;;;;;;14.63;4.60;;;;;;;12.39;35.47;100067.03;5011743;28;20429;-68
2022/04/24 00:18:17;;;;;;;8.73;4.18;;;;;;;12.15;35.98;100066.31;5010656;28;20046;-68
2022/04/24 00:20:44;;;;;;;8.77;4.70;;;;;;;12.03;36.14;100066.97;5012634;28;20447;-68
2022/04/24 00:23:10;;;;;;;11.00;4.65;;;;;;;12.03;36.10;100067.78;5012671;28;20413;-68
2022/04/24 00:25:37;;;;;;;14.68;5.93;;;;;;;12.37;35.54;100069.06;5011827;28;20073;-68
2022/04/24 00:28:04;;;;;;;13.55;5.80;;;;;;;12.65;35.10;100059.25;5012773;28;20569;-68
2022/04/24 00:30:30;;;;;;;10.68;4.55;;;;;;;11.86;36.43;100051.03;5013009;28;20069;-68
2022/04/24 00:32:56;;;;;;;15.43;5.63;;;;;;;12.16;36.12;100054.53;5013414;28;20121;-68
2022/04/24 00:35:23;;;;;;;10.63;4.47;;;;;;;11.65;36.94;100045.50;5006939;28;20508;-68
2022/04/24 00:37:49;;;;;;;14.52;5.97;;;;;;;12.16;36.08;100048.31;5012741;28;20578;-68
2022/04/24 00:40:18;;;;;;;9.38;5.15;;;;;;;12.20;36.04;100049.59;5013302;28;20125;-68
2022/04/24 00:42:45;;;;;;;9.90;4.25;;;;;;;11.88;36.55;100054.34;5012993;28;20493;-68
2022/04/24 00:45:11;;;;;;;10.52;4.25;;;;;;;12.08;36.38;100053.81;5009976;28;20065;-68
2022/04/24 00:47:38;;;;;;;8.27;4.88;;;;;;;11.84;36.81;100047.69;5013282;28;20052;-68
2022/04/24 00:50:05;;;;;;;11.93;4.35;;;;;;;11.86;36.73;100044.78;5012213;28;20132;-68
2022/04/24 00:52:32;;;;;;;11.25;4.88;;;;;;;11.74;37.07;100047.13;5012065;28;20125;-68
2022/04/24 00:55:00;;;;;;;16.90;5.97;;;;;;;11.69;37.17;100041.47;5013526;28;20128;-66
2022/04/24 00:57:26;;;;;;;10.35;4.43;;;;;;;11.84;36.97;100038.78;5012255;28;20046;-67
2022/04/24 00:59:53;;;;;;;8.82;4.88;;;;;;;11.76;37.23;100034.34;5012378;28;20050;-68
2022/04/24 01:02:19;;;;;;;10.82;5.05;;;;;;;11.62;37.32;100029.75;5011694;28;20080;-68
2022/04/24 01:04:46;;;;;;;11.05;4.40;;;;;;;11.33;38.14;100039.44;5013445;28;20053;-68
2022/04/24 01:07:21;;;;;;;12.68;5.00;;;;;;;11.18;38.41;100025.97;5013610;28;20084;-67
2022/04/24 01:09:48;;;;;;;10.30;5.28;;;;;;;11.63;37.45;100026.88;5012076;28;20132;-68
2022/04/24 01:12:14;;;;;;;16.55;5.45;;;;;;;10.87;38.98;100019.88;5012951;28;20549;-67
2022/04/24 01:14:41;;;;;;;9.10;4.63;;;;;;;11.56;37.82;100017.91;5011600;28;20445;-68
2022/04/24 01:17:08;;;;;;;16.52;5.68;;;;;;;10.97;39.20;100015.09;5011982;28;20046;-68
2022/04/24 01:19:34;;;;;;;11.27;4.97;;;;;;;11.53;38.12;100017.44;5011785;28;20081;-68
2022/04/24 01:22:01;;;;;;;10.68;5.22;;;;;;;11.87;37.32;100020.44;5011802;28;20137;-68
2022/04/24 01:24:29;;;;;;;12.23;5.00;;;;;;;11.25;38.58;100023.41;5011083;28;20046;-68
2022/04/24 01:26:56;;;;;;;16.15;5.53;;;;;;;11.11;38.86;100024.19;5012270;28;20498;-68
2022/04/24 01:29:23;;;;;;;10.95;6.00;;;;;;;11.41;38.49;100015.19;5013053;28;20469;-68
2022/04/24 01:31:49;;;;;;;14.57;7.57;;;;;;;11.11;39.18;100019.66;5010231;28;20092;-68
2022/04/24 01:34:18;;;;;;;13.32;5.70;;;;;;;10.77;39.80;100013.91;5011684;28;20061;-68
2022/04/24 01:36:44;;;;;;;9.35;5.22;;;;;;;10.77;39.84;100009.34;5010979;28;20100;-67
2022/04/24 01:39:11;;;;;;;12.43;5.85;;;;;;;11.23;38.94;100009.31;5010585;28;20132;-68
2022/04/24 01:41:37;;;;;;;11.43;5.43;;;;;;;10.91;39.50;100005.06;5003344;28;20452;-67
2022/04/24 01:44:04;;;;;;;20.58;5.72;;;;;;;10.58;40.26;100007.13;5024134;28;20076;-68
2022/04/24 01:46:30;;;;;;;19.30;9.07;;;;;;;11.10;39.21;100012.63;5011566;28;20096;-67
2022/04/24 01:48:57;;;;;;;13.07;6.43;;;;;;;10.45;40.68;100005.03;5010987;28;20050;-67
2022/04/24 01:51:23;;;;;;;14.77;6.68;;;;;;;10.42;40.85;100014.25;5012316;28;20136;-68
2022/04/24 01:53:50;;;;;;;14.13;6.30;;;;;;;10.73;40.16;100013.41;5016898;28;20141;-68
2022/04/24 01:56:16;;;;;;;16.95;6.03;;;;;;;10.79;40.03;100014.53;5013388;28;20053;-66
2022/04/24 01:58:43;;;;;;;12.02;5.90;;;;;;;10.59;40.46;100011.50;5011140;28;20136;-67
2022/04/24 02:01:09;;;;;;;16.52;5.72;;;;;;;10.42;40.92;100013.41;5011445;28;20130;-68
2022/04/24 02:03:36;;;;;;;11.00;5.57;;;;;;;10.60;40.60;100010.50;5011265;28;20111;-67
2022/04/24 02:06:04;;;;;;;14.73;5.68;;;;;;;10.13;41.36;100004.19;5011408;28;20513;-66
2022/04/24 02:08:34;;;;;;;13.63;5.97;;;;;;;10.43;40.75;100005.19;5010498;28;20096;-67
2022/04/24 02:11:02;;;;;;;16.50;6.15;;;;;;;10.18;41.21;100012.53;5013455;28;20052;-66
2022/04/24 02:13:28;;;;;;;14.07;5.82;;;;;;;10.52;40.72;100003.34;5014633;28;20156;-67
2022/04/24 02:15:55;;;;;;;12.00;5.55;;;;;;;10.53;40.85;100010.34;5007188;28;20464;-68
2022/04/24 02:18:21;;;;;;;11.70;5.47;;;;;;;10.24;41.53;100001.13;5011738;28;20085;-68
2022/04/24 02:20:48;;;;;;;14.07;5.72;;;;;;;10.76;40.36;99994.28;5011129;28;20096;-67
2022/04/24 02:23:14;;;;;;;14.43;5.82;;;;;;;10.43;40.87;99997.13;5010954;28;20208;-66
2022/04/24 02:25:41;;;;;;;14.75;5.82;;;;;;;10.78;40.40;99997.59;5011107;28;20053;-67
2022/04/24 02:28:07;;;;;;;12.68;5.95;;;;;;;10.45;40.90;99992.44;5010981;28;20041;-67
2022/04/24 02:30:35;;;;;;;12.48;5.65;;;;;;;10.75;40.41;99995.28;5009925;28;20133;-68
2022/04/24 02:33:01;;;;;;;8.35;5.18;;;;;;;10.25;41.33;99981.34;5010418;28;20100;-68
2022/04/24 02:35:28;;;;;;;13.80;5.97;;;;;;;10.20;41.72;99989.09;5010698;28;20076;-68
2022/04/24 02:37:55;;;;;;;16.30;6.03;;;;;;;10.47;41.09;99987.72;5011556;28;20129;-68
2022/04/24 02:40:21;;;;;;;12.65;5.45;;;;;;;10.16;41.57;99979.69;5011242;28;20601;-68
2022/04/24 02:42:50;;;;;;;15.73;6.00;;;;;;;9.95;42.28;99985.66;5010647;28;20049;-68
2022/04/24 02:45:17;;;;;;;12.30;5.72;;;;;;;10.08;41.97;99984.28;5011078;28;25276;-68
2022/04/24 02:47:44;;;;;;;11.38;5.65;;;;;;;10.21;41.70;99984.56;5011703;28;20052;-68
2022/04/24 02:50:11;;;;;;;15.98;6.25;;;;;;;10.12;41.75;99981.06;5011002;28;20069;-68
2022/04/24 02:52:55;;;;;;;11.80;6.18;;;;;;;9.81;42.62;99978.34;5011225;28;20077;-66
2022/04/24 02:55:23;;;;;;;13.27;5.70;;;;;;;9.82;42.22;99974.69;5011464;28;20073;-68
2022/04/24 02:57:50;;;;;;;12.73;5.15;;;;;;;10.40;41.10;99973.34;5011019;28;20125;-67
2022/04/24 03:00:38;;;;;;;13.68;5.80;;;;;;;9.86;42.22;99967.97;5010038;28;20084;-67
2022/04/24 03:03:05;;;;;;;10.35;6.43;;;;;;;10.36;40.98;99961.31;5009732;28;20069;-68
2022/04/24 03:05:32;;;;;;;13.00;5.93;;;;;;;10.03;41.61;99964.22;5011241;28;20042;-67
2022/04/24 03:07:58;;;;;;;13.50;6.50;;;;;;;9.96;42.04;99954.38;5016268;28;20128;-68
2022/04/24 03:10:25;;;;;;;17.38;6.43;;;;;;;10.16;41.37;99960.09;5011154;28;20084;-68
2022/04/24 03:12:51;;;;;;;13.75;6.50;;;;;;;10.15;41.78;99953.91;5011045;28;20129;-67
2022/04/24 03:15:18;;;;;;;19.35;6.28;;;;;;;9.75;42.76;99953.13;5009990;28;20442;-68
2022/04/24 03:17:45;;;;;;;15.02;5.90;;;;;;;9.70;42.85;99954.63;5010947;28;20053;-66
2022/04/24 03:20:13;;;;;;;18.38;6.75;;;;;;;9.50;43.14;99949.66;5010429;28;20130;-68
2022/04/24 03:22:40;;;;;;;17.13;6.72;;;;;;;9.54;43.18;99951.03;5009802;28;20042;-68
2022/04/24 03:25:12;;;;;;;13.13;6.30;;;;;;;9.66;43.12;99945.28;5009538;28;20104;-67
2022/04/24 03:27:39;;;;;;;12.32;6.32;;;;;;;9.87;42.22;99955.41;5010166;28;20038;-68
2022/04/24 03:30:11;;;;;;;13.60;5.90;;;;;;;9.51;43.00;99951.34;5010318;28;20066;-68
2022/04/24 03:32:39;;;;;;;14.40;6.22;;;;;;;10.11;41.79;99954.44;5010411;28;20388;-68
2022/04/24 03:35:09;;;;;;;13.85;6.57;;;;;;;9.83;42.43;99944.19;5010093;28;20066;-67
2022/04/24 03:37:38;;;;;;;12.38;6.18;;;;;;;9.87;41.96;99942.84;5011937;28;20045;-67
2022/04/24 03:40:06;;;;;;;18.60;6.15;;;;;;;9.74;42.14;99945.25;5010532;28;20092;-68
2022/04/24 03:42:33;;;;;;;12.57;6.50;;;;;;;9.80;42.46;99941.88;5010096;28;20124;-68
2022/04/24 03:44:59;;;;;;;14.13;6.70;;;;;;;9.16;43.64;99941.03;5009665;28;20046;-68
2022/04/24 03:47:26;;;;;;;17.10;6.97;;;;;;;9.56;42.99;99942.81;5010288;28;20069;-67
2022/04/24 03:49:52;;;;;;;12.48;6.57;;;;;;;9.85;42.44;99938.66;5009729;28;20046;-67
2022/04/24 03:52:19;;;;;;;18.85;7.82;;;;;;;9.86;42.35;99937.66;5009765;28;20136;-67
2022/04/24 03:54:45;;;;;;;16.80;7.72;;;;;;;9.58;43.04;99946.16;5010557;28;20524;-67
2022/04/24 03:57:13;;;;;;;20.17;6.45;;;;;;;9.64;42.96;99940.06;5009867;28;20128;-67
2022/04/24 03:59:39;;;;;;;16.10;7.47;;;;;;;9.56;42.88;99940.94;5010697;28;20144;-67
2022/04/24 04:02:06;;;;;;;13.95;6.32;;;;;;;9.96;42.12;99943.66;5009700;28;20056;-67
2022/04/24 04:04:34;;;;;;;15.30;7.18;;;;;;;9.65;42.83;99941.78;5010220;28;20142;-67
2022/04/24 04:07:00;;;;;;;14.80;6.47;;;;;;;9.28;43.36;99950.41;5013662;28;20069;-67
2022/04/24 04:09:27;;;;;;;17.75;6.20;;;;;;;9.13;44.07;99944.91;5013244;28;20069;-68
2022/04/24 04:11:53;;;;;;;13.20;7.00;;;;;;;9.29;43.60;99944.03;5013618;28;20045;-67
2022/04/24 04:14:21;;;;;;;17.65;7.55;;;;;;;9.18;43.87;99939.03;5012876;28;20081;-67
2022/04/24 04:16:49;;;;;;;23.25;7.80;;;;;;;8.87;44.69;99944.25;5011911;28;20049;-67
2022/04/24 04:19:15;;;;;;;16.85;7.25;;;;;;;8.58;45.47;99943.75;5013758;28;20045;-67
2022/04/24 04:21:43;;;;;;;14.77;7.57;;;;;;;9.52;43.37;99953.03;5012100;28;20042;-67
2022/04/24 04:24:09;;;;;;;13.88;7.78;;;;;;;9.11;44.04;99956.75;5013101;28;20465;-67
2022/04/24 04:26:36;;;;;;;21.98;8.63;;;;;;;8.76;44.98;99962.31;5013017;28;20041;-67
2022/04/24 04:29:03;;;;;;;19.33;7.13;;;;;;;8.86;44.93;99962.13;5013631;28;20124;-67
2022/04/24 04:31:29;;;;;;;13.52;7.38;;;;;;;9.12;44.33;99961.09;5013650;28;20069;-67
2022/04/24 04:33:56;;;;;;;14.15;6.97;;;;;;;9.53;43.38;99949.31;5013466;28;20140;-67
2022/04/24 04:36:23;;;;;;;15.68;7.45;;;;;;;9.11;44.11;99946.06;5013639;28;20124;-67
2022/04/24 04:38:49;;;;;;;15.13;7.28;;;;;;;9.10;44.27;99950.59;5013463;28;20125;-67
2022/04/24 04:41:15;;;;;;;15.80;6.70;;;;;;;9.40;43.37;99957.06;5008968;28;20133;-67
2022/04/24 04:43:42;;;;;;;19.00;7.80;;;;;;;9.43;43.50;99956.72;5013069;28;20482;-67
2022/04/24 04:46:08;;;;;;;17.23;8.23;;;;;;;9.86;42.73;99954.56;5012500;28;20486;-67
2022/04/24 04:48:35;;;;;;;18.35;8.60;;;;;;;9.64;42.81;99948.13;5013046;28;20046;-67
2022/04/24 04:51:01;;;;;;;15.85;8.32;;;;;;;9.85;42.74;99952.88;5013226;28;20085;-67
2022/04/24 04:53:28;;;;;;;13.93;7.38;;;;;;;9.65;42.84;99957.00;5012589;28;20471;-67
2022/04/24 04:55:55;;;;;;;23.48;8.65;;;;;;;10.15;42.13;99953.91;5013820;28;20096;-67
2022/04/24 04:58:21;;;;;;;16.65;7.93;;;;;;;10.63;41.10;99951.13;5012712;28;20049;-67
2022/04/24 05:00:47;;;;;;;14.32;7.68;;;;;;;10.36;41.50;99950.59;5012412;28;20389;-67
2022/04/24 05:03:14;;;;;;;17.48;7.82;;;;;;;10.69;40.83;99961.16;5008010;28;20045;-67
2022/04/24 05:05:41;;;;;;;16.90;7.80;;;;;;;9.88;42.20;99957.06;5013008;28;20053;-67
2022/04/24 05:08:08;;;;;;;16.13;7.40;;;;;;;10.54;41.23;99949.50;5012611;28;20050;-67
2022/04/24 05:10:35;;;;;;;14.98;7.82;;;;;;;10.27;41.58;99944.47;5012194;28;20461;-67
2022/04/24 05:13:01;;;;;;;16.25;7.03;;;;;;;10.64;40.70;99955.47;5013408;28;20134;-67
2022/04/24 05:15:27;;;;;;;13.65;7.80;;;;;;;10.90;40.18;99953.25;5013038;28;20129;-67
2022/04/24 05:17:54;;;;;;;17.60;7.60;;;;;;;10.16;41.68;99954.75;5012025;28;20061;-67
2022/04/24 05:20:21;;;;;;;14.70;8.75;;;;;;;9.94;42.01;99953.69;5012744;28;20141;-68
2022/04/24 05:22:47;;;;;;;16.05;8.02;;;;;;;9.88;42.79;99957.91;5012120;28;20140;-67
2022/04/24 05:25:14;;;;;;;16.23;8.07;;;;;;;10.17;41.81;99959.13;5012868;28;20475;-67
2022/04/24 05:27:41;;;;;;;19.80;8.38;;;;;;;10.76;40.70;99967.47;5012823;28;20046;-67
2022/04/24 05:30:08;;;;;;;16.33;7.68;;;;;;;10.75;40.16;99968.44;5012394;28;20133;-67
2022/04/24 05:32:46;;;;;;;16.55;8.23;;;;;;;10.35;41.10;99970.38;5012530;28;20160;-67
2022/04/24 05:35:13;;;;;;;17.35;7.93;;;;;;;11.18;39.51;99972.28;5013402;28;20042;-67
2022/04/24 05:37:40;;;;;;;20.95;8.05;;;;;;;10.85;40.03;99969.03;5012823;28;20121;-67
2022/04/24 05:40:07;;;;;;;15.75;7.65;;;;;;;10.63;40.44;99964.53;5012570;28;20050;-67
2022/04/24 05:42:34;;;;;;;15.40;7.88;;;;;;;11.34;38.83;99963.22;5011986;28;20530;-67
2022/04/24 05:45:01;;;;;;;16.27;8.20;;;;;;;11.58;38.68;99961.28;5006337;28;20092;-67
2022/04/24 05:47:27;;;;;;;14.30;7.18;;;;;;;11.08;39.36;99962.81;5023684;28;20061;-67
2022/04/24 05:49:54;;;;;;;15.45;7.70;;;;;;;11.17;39.28;99956.34;5011502;28;20447;-67
2022/04/24 05:52:21;;;;;;;19.95;8.75;;;;;;;10.14;41.18;99962.16;5011393;28;20120;-67
2022/04/24 05:54:47;;;;;;;20.75;8.05;;;;;;;10.29;41.00;99949.63;5011330;28;20486;-67
2022/04/24 05:57:13;;;;;;;13.65;7.50;;;;;;;10.19;41.11;99965.13;5011457;28;20056;-67
2022/04/24 05:59:40;;;;;;;13.93;7.43;;;;;;;10.72;40.02;99960.75;5012220;28;20065;-67
2022/04/24 06:02:06;;;;;;;17.20;7.63;;;;;;;11.46;38.57;99961.75;5011289;28;20077;-67
2022/04/24 06:04:33;;;;;;;13.30;8.15;;;;;;;11.87;37.77;99955.94;5012115;28;20453;-67
2022/04/24 06:06:59;;;;;;;11.40;7.13;;;;;;;11.55;37.67;99958.97;5011366;28;20077;-67
2022/04/24 06:09:26;;;;;;;18.75;8.38;;;;;;;11.31;38.50;99960.06;5010715;28;20569;-67
2022/04/24 06:11:58;;;;;;;19.75;8.18;;;;;;;10.69;39.77;99955.78;5011987;28;20046;-67
2022/04/24 06:14:25;;;;;;;14.43;7.97;;;;;;;11.53;38.24;99961.03;5011751;28;20046;-67
2022/04/24 06:16:52;;;;;;;11.00;7.15;;;;;;;11.55;37.98;99964.34;5010127;28;20045;-68
2022/04/24 06:19:19;;;;;;;16.55;7.00;;;;;;;11.46;38.08;99963.59;5009204;28;20050;-67
2022/04/24 06:21:45;;;;;;;13.20;6.95;;;;;;;11.66;37.99;99958.56;5010454;28;20524;-66
2022/04/24 06:24:14;;;;;;;14.20;7.30;;;;;;;11.72;37.81;99955.09;5012465;28;20509;-67
2022/04/24 06:26:44;;;;;;;16.63;7.70;;;;;;;12.35;36.62;99948.22;5011042;28;20066;-67
2022/04/24 06:29:11;;;;;;;15.15;7.43;;;;;;;11.55;37.77;99962.50;5011051;28;20045;-67
2022/04/24 06:31:37;;;;;;;15.40;7.32;;;;;;;12.25;36.66;99955.78;5015659;28;20200;-67
2022/04/24 06:34:04;;;;;;;13.80;7.68;;;;;;;11.72;37.71;99952.41;5012005;28;20050;-67
2022/04/24 06:36:31;;;;;;;13.80;7.30;;;;;;;11.27;38.54;99950.72;5011656;28;20113;-67
2022/04/24 06:38:57;;;;;;;14.27;7.28;;;;;;;11.56;38.12;99949.91;5011973;28;20229;-66
2022/04/24 06:41:24;;;;;;;14.20;6.57;;;;;;;11.51;38.27;99944.25;5011434;28;20045;-66
2022/04/24 06:43:50;;;;;;;10.73;7.05;;;;;;;11.33;38.40;99939.25;5010887;28;20482;-67
2022/04/24 06:46:18;;;;;;;12.95;6.55;;;;;;;11.67;37.71;99944.09;5011842;28;20502;-66
2022/04/24 06:48:45;;;;;;;14.48;6.40;;;;;;;11.93;37.50;99951.66;5010359;28;20049;-67
2022/04/24 06:51:11;;;;;;;13.82;6.90;;;;;;;12.39;36.63;99941.44;5010806;28;20455;-67
2022/04/24 06:53:39;;;;;;;18.65;6.70;;;;;;;12.37;36.76;99938.09;5009508;28;20048;-67
2022/04/24 06:56:06;;;;;;;13.40;6.75;;;;;;;12.43;36.61;99941.88;5011065;28;20096;-67
2022/04/24 06:58:32;;;;;;;12.02;6.47;;;;;;;13.48;34.93;99932.19;5011501;28;20543;-67
2022/04/24 07:01:06;;;;;;;14.88;6.45;;;;;;;12.90;35.67;99945.03;5011763;28;20096;-67
2022/04/24 07:03:34;;;;;;;13.77;6.50;;;;;;;12.43;36.55;99933.00;5010518;28;20131;-66
2022/04/24 07:06:00;;;;;;;13.10;6.90;;;;;;;12.80;35.86;99939.97;5011120;28;20046;-67
2022/04/24 07:08:29;;;;;;;13.50;7.10;;;;;;;12.86;36.08;99925.75;5009586;28;20061;-66
2022/04/24 07:10:56;;;;;;;17.42;7.18;;;;;;;13.43;34.78;99929.25;5010277;28;20092;-67
2022/04/24 07:13:23;;;;;;;12.95;7.30;;;;;;;13.14;35.07;99923.03;5009669;28;20137;-67
2022/04/24 07:15:49;;;;;;;11.73;7.63;;;;;;;13.12;35.49;99927.81;5010957;28;20169;-67
2022/04/24 07:18:16;;;;;;;15.02;7.25;;;;;;;14.34;33.12;99915.53;5010679;28;20041;-67
2022/04/24 07:20:42;;;;;;;14.98;7.05;;;;;;;13.35;34.88;99923.00;5011101;28;20129;-67
2022/04/24 07:23:11;;;;;;;14.30;7.55;;;;;;;13.64;34.30;99918.38;5010562;28;20542;-67
2022/04/24 07:25:41;;;;;;;11.63;7.03;;;;;;;13.70;34.10;99916.72;5010543;28;20046;-67
2022/04/24 07:28:08;;;;;;;16.95;7.45;;;;;;;13.72;33.92;99917.38;5010232;28;20050;-67
2022/04/24 07:30:34;;;;;;;14.25;6.93;;;;;;;14.31;33.18;99914.06;5010706;28;20168;-67
2022/04/24 07:33:01;;;;;;;14.43;6.90;;;;;;;14.24;33.14;99905.97;5009295;28;20447;-67
2022/04/24 07:35:36;;;;;;;13.10;7.05;;;;;;;15.37;31.48;99903.28;5010341;28;20077;-67
2022/04/24 07:38:03;;;;;;;10.95;6.35;;;;;;;14.65;32.18;99907.69;5010524;28;20125;-67
2022/04/24 07:40:31;;;;;;;12.65;6.93;;;;;;;14.89;31.70;99902.75;5011536;28;20132;-67
2022/04/24 07:43:03;;;;;;;16.33;7.32;;;;;;;14.02;32.91;99908.00;5014519;28;20141;-67
2022/04/24 07:45:34;;;;;;;12.98;6.70;;;;;;;15.06;31.17;99890.47;5014307;28;20041;-67
2022/04/24 07:48:02;;;;;;;11.68;7.13;;;;;;;15.43;30.54;99890.78;5014216;28;20129;-67
2022/04/24 07:50:30;;;;;;;12.80;6.50;;;;;;;14.62;31.84;99889.19;5014253;28;20045;-67
2022/04/24 07:52:57;;;;;;;10.60;6.10;;;;;;;15.25;30.59;99892.28;5013808;28;20133;-68
2022/04/24 07:55:24;;;;;;;13.15;6.43;;;;;;;14.85;30.99;99888.00;5013443;28;20141;-68
2022/04/24 07:57:57;;;;;;;11.10;6.35;;;;;;;14.65;31.30;99891.50;5013943;28;20053;-68
2022/04/24 08:00:26;;;;;;;9.43;6.05;;;;;;;15.08;30.74;99885.66;5014581;28;20038;-67
2022/04/24 08:03:01;;;;;;;11.68;6.50;;;;;;;15.95;29.43;99880.84;5013938;28;20065;-68
2022/04/24 08:05:38;;;;;;;8.85;6.10;;;;;;;17.04;27.85;99873.41;5013917;28;20057;-68
2022/04/24 08:08:10;;;;;;;9.23;5.55;;;;;;;16.56;28.14;99877.56;5015232;28;20465;-68
2022/04/24 08:10:40;;;;;;;;;;;;;;;15.80;29.13;99875.72;5013454;28;20054;-68
2022/04/24 08:13:07;;;;;;;13.57;6.20;;;;;;;16.74;28.35;99875.97;5014386;28;20281;-68
2022/04/24 08:15:40;;;;;;;8.98;6.22;;;;;;;16.12;28.46;99882.00;5012769;28;20061;-68
2022/04/24 08:18:07;;;;;;;10.68;5.95;;;;;;;16.49;27.83;99868.63;5013504;28;20054;-68
2022/04/24 08:20:34;;;;;;;10.85;5.53;;;;;;;16.37;28.28;99873.13;5014046;28;20128;-69
2022/04/24 08:23:02;;;;;;;8.57;5.20;;;;;;;15.65;29.19;99867.06;5013716;28;20046;-68
2022/04/24 08:25:34;;;;;;;10.20;5.88;;;;;;;15.97;28.78;99867.94;5013331;28;20053;-68
2022/04/24 08:28:05;;;;;;;11.05;5.70;;;;;;;16.91;27.56;99863.53;5014385;28;20053;-68
2022/04/24 08:30:31;;;;;;;12.85;5.57;;;;;;;17.23;27.26;99861.50;5012172;28;20081;-68
2022/04/24 08:32:57;;;;;;;9.02;5.68;;;;;;;18.18;25.95;99857.47;5011819;28;20126;-68
2022/04/24 08:35:25;;;;;;;12.15;5.80;;;;;;;17.35;26.79;99854.34;5013548;28;20058;-68
2022/04/24 08:37:52;;;;;;;13.45;5.80;;;;;;;17.72;26.18;99848.91;5013517;28;20137;-68
2022/04/24 08:40:21;;;;;;;11.88;5.82;;;;;;;17.17;26.64;99848.06;5012680;28;20056;-67
2022/04/24 08:42:47;;;;;;;15.43;5.97;;;;;;;17.34;26.52;99852.69;5012911;28;20398;-67
2022/04/24 08:45:15;;;;;;;11.50;5.60;;;;;;;17.92;25.67;99847.78;5013682;28;20046;-67
2022/04/24 08:47:43;;;;;;;10.20;5.25;;;;;;;18.15;25.65;99849.78;5014152;28;20046;-67
2022/04/24 08:50:11;;;;;;;13.88;4.90;;;;;;;17.78;26.06;99852.56;5011828;28;20193;-67
2022/04/24 08:52:42;;;;;;;9.73;4.90;;;;;;;18.40;25.18;99845.00;5012342;28;20510;-67
2022/04/24 08:55:08;;;;;;;9.20;5.38;;;;;;;18.00;25.51;99853.72;5012284;28;20439;-67
2022/04/24 08:57:35;;;;;;;8.07;4.90;;;;;;;18.91;24.27;99854.41;5012453;28;20129;-68
2022/04/24 09:00:04;;;;;;;10.90;4.80;;;;;;;19.63;23.35;99850.53;5012769;28;20152;-67
2022/04/24 09:02:49;;;;;;;12.00;5.20;;;;;;;18.75;24.18;99853.19;5012226;28;20490;-66
2022/04/24 09:05:16;;;;;;;6.60;4.22;;;;;;;18.28;24.45;99844.16;5012295;28;20043;-67
2022/04/24 09:07:43;;;;;;;9.05;4.38;;;;;;;19.02;24.02;99836.47;5011960;28;20080;-68
2022/04/24 09:10:30;;;;;;;15.82;5.43;;;;;;;18.50;24.34;99849.88;5012228;28;20038;-66
2022/04/24 09:12:57;;;;;;;10.70;5.07;;;;;;;17.67;25.37;99847.91;5013220;28;20108;-66
2022/04/24 09:15:24;;;;;;;7.45;4.78;;;;;;;18.11;24.78;99840.44;5012636;28;20042;-67
2022/04/24 09:17:59;;;;;;;12.70;5.07;;;;;;;18.25;24.70;99836.50;5012631;28;20077;-67
2022/04/24 09:20:40;;;;;;;6.97;5.20;;;;;;;17.81;25.12;99843.97;5012050;28;20116;-68
2022/04/24 09:23:07;;;;;;;12.35;4.80;;;;;;;18.27;24.62;99837.91;5012715;28;20057;-66
2022/04/24 09:25:40;;;;;;;8.95;5.00;;;;;;;18.12;24.97;99844.78;5012769;28;20046;-68
2022/04/24 09:28:06;;;;;;;10.55;5.45;;;;;;;17.83;25.17;99841.88;5012925;28;20050;-68
2022/04/24 09:30:36;;;;;;;8.35;4.85;;;;;;;17.90;25.50;99850.75;5010119;28;20077;-66
2022/04/24 09:33:07;;;;;;;7.43;4.80;;;;;;;17.67;25.48;99839.78;5012106;28;20066;-66
2022/04/24 09:35:36;;;;;;;13.73;5.63;;;;;;;18.63;24.61;99844.22;5011303;28;20050;-67
2022/04/24 09:38:14;;;;;;;10.43;5.13;;;;;;;18.70;24.51;99838.69;5007688;28;20553;-67
2022/04/24 09:40:44;;;;;;;11.20;5.28;;;;;;;19.67;23.23;99832.66;5013061;28;20138;-67
2022/04/24 09:43:12;;;;;;;8.27;4.97;;;;;;;19.11;24.01;99834.22;5011980;28;20129;-64
2022/04/24 09:45:40;;;;;;;9.18;5.25;;;;;;;19.98;23.11;99833.28;5012380;28;20129;-66
2022/04/24 09:48:19;;;;;;;10.05;5.25;;;;;;;19.38;24.03;99835.34;5011621;28;20050;-66
2022/04/24 09:50:50;;;;;;;9.27;4.95;;;;;;;19.08;24.21;99840.13;5012676;28;20125;-66
2022/04/24 09:53:19;;;;;;;17.17;5.00;;;;;;;19.72;23.93;99832.78;5009154;28;20116;-66
2022/04/24 09:55:49;;;;;;;11.43;5.18;;;;;;;20.49;22.92;99839.63;5011650;28;20052;-65
2022/04/24 09:58:16;;;;;;;8.02;5.20;;;;;;;20.16;23.03;99835.78;5011061;28;20491;-64
2022/04/24 10:00:44;;;;;;;7.22;5.22;;;;;;;19.50;23.87;99847.03;5011647;28;20121;-65
2022/04/24 10:03:15;;;;;;;10.77;5.15;;;;;;;19.45;24.34;99844.19;5010668;28;20042;-65
2022/04/24 10:05:43;;;;;;;;;;;;;;;18.97;23.77;99839.91;5010489;28;20077;-64
2022/04/24 10:08:09;;;;;;;11.43;4.85;;;;;;;19.20;23.97;99841.75;5011282;28;19928;-66
2022/04/24 10:10:36;;;;;;;12.45;4.70;;;;;;;19.55;23.85;99837.31;5012006;28;20125;-66
2022/04/24 10:13:10;;;;;;;12.18;5.07;;;;;;;20.05;23.32;99839.41;5011140;28;20129;-65
2022/04/24 10:15:45;;;;;;;11.68;4.97;;;;;;;20.79;22.36;99822.94;5011313;28;20052;-65
2022/04/24 10:18:24;;;;;;;9.05;4.35;;;;;;;20.07;23.50;99820.91;5011359;28;20486;-65
2022/04/24 10:21:23;;;;;;;10.07;4.90;;;;;;;20.39;23.13;99819.31;5010789;28;20486;-65
2022/04/24 10:23:49;;;;;;;7.80;4.95;;;;;;;20.39;22.55;99829.38;5007417;28;20204;-65
2022/04/24 10:26:18;;;;;;;9.68;4.85;;;;;;;19.71;23.04;99818.34;5012058;28;20132;-65
2022/04/24 10:28:46;;;;;;;11.38;4.90;;;;;;;18.54;24.66;99821.19;5010457;28;20064;-65
2022/04/24 10:31:15;;;;;;;9.60;5.47;;;;;;;17.77;25.87;99819.19;5010694;28;20561;-66
2022/04/24 10:33:52;;;;;;;11.30;4.90;;;;;;;17.81;25.81;99817.66;5011912;28;20096;-65
2022/04/24 10:36:19;;;;;;;11.15;5.10;;;;;;;18.00;25.65;99823.06;5011445;28;20049;-65
2022/04/24 10:38:48;;;;;;;10.68;4.90;;;;;;;18.07;25.19;99811.03;5011321;28;20410;-65
2022/04/24 10:41:36;;;;;;;7.57;4.60;;;;;;;19.13;24.08;99813.03;5010837;28;20041;-66
2022/04/24 10:44:15;;;;;;;8.32;4.10;;;;;;;17.98;25.77;99817.84;5012707;28;20133;-66
2022/04/24 10:46:42;;;;;;;11.20;4.80;;;;;;;18.22;25.45;99817.94;5010808;28;20133;-66
2022/04/24 10:49:10;;;;;;;7.10;3.85;;;;;;;18.87;24.02;99808.91;5010749;28;20046;-67
2022/04/24 10:51:40;;;;;;;8.00;3.67;;;;;;;18.11;25.18;99807.84;5011426;28;20470;-67
2022/04/24 10:54:08;;;;;;;7.30;4.00;;;;;;;18.49;24.17;99807.47;5010737;28;20096;-68
2022/04/24 10:56:37;;;;;;;8.82;3.58;;;;;;;18.76;24.25;99811.41;5011187;28;20455;-68
2022/04/24 10:59:09;;;;;;;6.35;3.65;;;;;;;18.12;24.42;99815.75;5009970;28;20074;-67
2022/04/24 11:01:36;;;;;;;7.45;4.07;;;;;;;17.74;24.83;99813.38;5010834;28;20077;-66
2022/04/24 11:04:06;;;;;;;5.53;3.35;;;;;;;18.36;24.07;99805.81;5011544;28;20405;-66
2022/04/24 11:06:33;;;;;;;4.15;2.88;;;;;;;18.09;23.38;99794.50;5011211;28;20121;-66
2022/04/24 11:09:12;;;;;;;13.02;3.50;;;;;;;17.56;24.21;99809.66;5011039;28;20045;-66
2022/04/24 11:11:51;;;;;;;10.60;4.38;;;;;;;18.13;23.91;99803.00;5010676;28;20427;-67
2022/04/24 11:14:22;;;;;;;7.20;3.53;;;;;;;18.79;23.56;99804.63;5011350;28;20081;-66
2022/04/24 11:16:50;;;;;;;6.85;3.60;;;;;;;18.11;24.61;99799.72;5013929;28;20432;-67
2022/04/24 11:19:27;;;;;;;11.07;3.28;;;;;;;18.76;23.28;99802.44;5015874;28;20512;-66
2022/04/24 11:22:14;;;;;;;6.25;3.53;;;;;;;18.14;24.37;99808.22;5015015;28;20129;-66
2022/04/24 11:24:47;;;;;;;5.72;3.47;;;;;;;17.54;25.19;99803.63;5015122;28;20054;-68
2022/04/24 11:27:15;;;;;;;6.40;3.50;;;;;;;18.36;24.30;99805.81;5014791;28;20479;-66
2022/04/24 11:29:44;;;;;;;9.93;3.70;;;;;;;17.61;24.61;99798.09;5016685;28;20073;-67
2022/04/24 11:32:13;;;;;;;5.22;2.85;;;;;;;17.83;24.60;99793.03;5016531;28;20109;-67